sensor_id;sensor_type;location;lat;lon;timestamp;P1;durP1;ratioP1;P2;durP2;ratioP2
25870;SDS011;13689;48.590;7.752;2024-01-27T00:01:32;8.40;;;2.75;;
25870;SDS011;13689;48.590;7.752;2024-01-27T00:03:58;7.97;;;2.55;;
25870;SDS011;13689;48.590;7.752;2024-01-27T00:06:23;7.28;;;2.45;;
25870;SDS011;13689;48.590;7.752;2024-01-27T00:08:49;9.95;;;2.17;;
25870;SDS011;13689;48.590;7.752;2024-01-27T00:11:15;9.93;;;2.72;;
25870;SDS011;13689;48.590;7.752;2024-01-27T00:13:40;12.82;;;2.72;;
25870;SDS011;13689;48.590;7.752;2024-01-27T00:16:06;12.18;;;2.55;;
25870;SDS011;13689;48.590;7.752;2024-01-27T00:18:32;8.48;;;2.55;;
25870;SDS011;13689;48.590;7.752;2024-01-27T00:20:57;3.60;;;1.98;;
25870;SDS011;13689;48.590;7.752;2024-01-27T00:23:23;11.20;;;2.35;;
25870;SDS011;13689;48.590;7.752;2024-01-27T00:25:48;11.73;;;2.75;;
25870;SDS011;13689;48.590;7.752;2024-01-27T00:28:14;9.73;;;1.80;;
25870;SDS011;13689;48.590;7.752;2024-01-27T00:30:40;14.07;;;2.60;;
25870;SDS011;13689;48.590;7.752;2024-01-27T00:33:05;7.45;;;2.55;;
25870;SDS011;13689;48.590;7.752;2024-01-27T00:35:31;7.95;;;2.15;;
25870;SDS011;13689;48.590;7.752;2024-01-27T00:37:57;7.07;;;2.25;;
25870;SDS011;13689;48.590;7.752;2024-01-27T00:40:23;6.38;;;2.08;;
25870;SDS011;13689;48.590;7.752;2024-01-27T00:42:48;11.90;;;2.05;;
25870;SDS011;13689;48.590;7.752;2024-01-27T00:45:14;6.53;;;2.08;;
25870;SDS011;13689;48.590;7.752;2024-01-27T00:47:40;6.75;;;2.00;;
25870;SDS011;13689;48.590;7.752;2024-01-27T00:50:05;9.07;;;2.22;;
25870;SDS011;13689;48.590;7.752;2024-01-27T00:52:33;10.00;;;2.00;;
25870;SDS011;13689;48.590;7.752;2024-01-27T00:55:00;9.15;;;3.03;;
25870;SDS011;13689;48.590;7.752;2024-01-27T00:57:25;10.40;;;2.15;;
25870;SDS011;13689;48.590;7.752;2024-01-27T00:59:51;10.40;;;2.58;;
25870;SDS011;13689;48.590;7.752;2024-01-27T01:02:17;4.65;;;2.08;;
25870;SDS011;13689;48.590;7.752;2024-01-27T01:04:42;9.55;;;2.20;;
25870;SDS011;13689;48.590;7.752;2024-01-27T01:07:09;7.30;;;2.05;;
25870;SDS011;13689;48.590;7.752;2024-01-27T01:09:34;12.60;;;2.35;;
25870;SDS011;13689;48.590;7.752;2024-01-27T01:12:00;8.38;;;1.88;;
25870;SDS011;13689;48.590;7.752;2024-01-27T01:14:25;6.88;;;2.00;;
25870;SDS011;13689;48.590;7.752;2024-01-27T01:16:51;7.72;;;2.28;;
25870;SDS011;13689;48.590;7.752;2024-01-27T01:19:17;9.90;;;2.13;;
25870;SDS011;13689;48.590;7.752;2024-01-27T01:21:42;9.55;;;2.17;;
25870;SDS011;13689;48.590;7.752;2024-01-27T01:24:08;15.15;;;2.45;;
25870;SDS011;13689;48.590;7.752;2024-01-27T01:26:34;7.68;;;2.17;;
25870;SDS011;13689;48.590;7.752;2024-01-27T01:28:59;12.85;;;2.28;;
25870;SDS011;13689;48.590;7.752;2024-01-27T01:31:25;14.40;;;2.22;;
25870;SDS011;13689;48.590;7.752;2024-01-27T01:33:51;10.43;;;2.20;;
25870;SDS011;13689;48.590;7.752;2024-01-27T01:36:16;10.82;;;2.30;;
25870;SDS011;13689;48.590;7.752;2024-01-27T01:38:42;4.75;;;1.75;;
25870;SDS011;13689;48.590;7.752;2024-01-27T01:41:08;8.32;;;1.98;;
25870;SDS011;13689;48.590;7.752;2024-01-27T01:43:33;8.07;;;2.30;;
25870;SDS011;13689;48.590;7.752;2024-01-27T01:45:59;13.93;;;2.40;;
25870;SDS011;13689;48.590;7.752;2024-01-27T01:48:25;8.18;;;2.38;;
25870;SDS011;13689;48.590;7.752;2024-01-27T01:50:51;7.97;;;2.13;;
25870;SDS011;13689;48.590;7.752;2024-01-27T01:53:16;12.35;;;2.55;;
25870;SDS011;13689;48.590;7.752;2024-01-27T01:55:43;5.97;;;1.70;;
25870;SDS011;13689;48.590;7.752;2024-01-27T01:58:08;8.05;;;2.25;;
25870;SDS011;13689;48.590;7.752;2024-01-27T02:00:34;10.70;;;2.08;;
25870;SDS011;13689;48.590;7.752;2024-01-27T02:03:00;7.68;;;1.85;;
25870;SDS011;13689;48.590;7.752;2024-01-27T02:05:25;5.50;;;2.08;;
25870;SDS011;13689;48.590;7.752;2024-01-27T02:07:51;7.45;;;2.58;;
25870;SDS011;13689;48.590;7.752;2024-01-27T02:10:17;3.85;;;1.73;;
25870;SDS011;13689;48.590;7.752;2024-01-27T02:12:43;4.18;;;1.83;;
25870;SDS011;13689;48.590;7.752;2024-01-27T02:15:12;18.60;;;2.25;;
25870;SDS011;13689;48.590;7.752;2024-01-27T02:17:39;6.90;;;1.80;;
25870;SDS011;13689;48.590;7.752;2024-01-27T02:20:05;10.75;;;2.20;;
25870;SDS011;13689;48.590;7.752;2024-01-27T02:22:32;4.45;;;1.77;;
25870;SDS011;13689;48.590;7.752;2024-01-27T02:24:58;8.18;;;1.90;;
25870;SDS011;13689;48.590;7.752;2024-01-27T02:27:24;6.75;;;1.70;;
25870;SDS011;13689;48.590;7.752;2024-01-27T02:29:49;7.05;;;2.10;;
25870;SDS011;13689;48.590;7.752;2024-01-27T02:32:15;6.03;;;2.03;;
25870;SDS011;13689;48.590;7.752;2024-01-27T02:34:41;8.90;;;2.03;;
25870;SDS011;13689;48.590;7.752;2024-01-27T02:37:06;9.02;;;2.17;;
25870;SDS011;13689;48.590;7.752;2024-01-27T02:39:32;8.43;;;2.15;;
25870;SDS011;13689;48.590;7.752;2024-01-27T02:41:57;9.95;;;2.25;;
25870;SDS011;13689;48.590;7.752;2024-01-27T02:44:23;9.13;;;2.08;;
25870;SDS011;13689;48.590;7.752;2024-01-27T02:46:48;8.82;;;2.25;;
25870;SDS011;13689;48.590;7.752;2024-01-27T02:49:14;7.80;;;2.15;;
25870;SDS011;13689;48.590;7.752;2024-01-27T02:51:40;5.55;;;2.03;;
25870;SDS011;13689;48.590;7.752;2024-01-27T02:54:05;5.60;;;1.92;;
25870;SDS011;13689;48.590;7.752;2024-01-27T02:56:31;9.90;;;2.30;;
25870;SDS011;13689;48.590;7.752;2024-01-27T02:58:56;10.77;;;2.60;;
25870;SDS011;13689;48.590;7.752;2024-01-27T03:01:22;8.95;;;2.50;;
25870;SDS011;13689;48.590;7.752;2024-01-27T03:03:47;5.72;;;1.65;;
25870;SDS011;13689;48.590;7.752;2024-01-27T03:06:13;10.00;;;2.70;;
25870;SDS011;13689;48.590;7.752;2024-01-27T03:08:38;6.75;;;2.50;;
25870;SDS011;13689;48.590;7.752;2024-01-27T03:11:04;4.30;;;1.98;;
25870;SDS011;13689;48.590;7.752;2024-01-27T03:13:30;10.45;;;2.40;;
25870;SDS011;13689;48.590;7.752;2024-01-27T03:15:55;10.95;;;2.15;;
25870;SDS011;13689;48.590;7.752;2024-01-27T03:18:21;9.75;;;3.08;;
25870;SDS011;13689;48.590;7.752;2024-01-27T03:20:47;5.65;;;2.50;;
25870;SDS011;13689;48.590;7.752;2024-01-27T03:23:12;10.27;;;2.95;;
25870;SDS011;13689;48.590;7.752;2024-01-27T03:25:38;6.50;;;2.40;;
25870;SDS011;13689;48.590;7.752;2024-01-27T03:28:04;10.02;;;2.45;;
25870;SDS011;13689;48.590;7.752;2024-01-27T03:30:29;11.10;;;2.65;;
25870;SDS011;13689;48.590;7.752;2024-01-27T03:32:55;11.57;;;2.50;;
25870;SDS011;13689;48.590;7.752;2024-01-27T03:35:20;7.07;;;2.65;;
25870;SDS011;13689;48.590;7.752;2024-01-27T03:37:46;5.65;;;1.98;;
25870;SDS011;13689;48.590;7.752;2024-01-27T03:40:12;6.50;;;2.20;;
25870;SDS011;13689;48.590;7.752;2024-01-27T03:42:38;9.32;;;2.30;;
25870;SDS011;13689;48.590;7.752;2024-01-27T03:45:03;4.70;;;2.22;;
25870;SDS011;13689;48.590;7.752;2024-01-27T03:47:29;13.35;;;2.80;;
25870;SDS011;13689;48.590;7.752;2024-01-27T03:49:55;15.38;;;2.67;;
25870;SDS011;13689;48.590;7.752;2024-01-27T03:52:20;4.95;;;2.03;;
25870;SDS011;13689;48.590;7.752;2024-01-27T03:54:46;7.00;;;2.47;;
25870;SDS011;13689;48.590;7.752;2024-01-27T03:57:11;12.32;;;2.72;;
25870;SDS011;13689;48.590;7.752;2024-01-27T03:59:39;9.90;;;2.55;;
25870;SDS011;13689;48.590;7.752;2024-01-27T04:02:06;9.05;;;2.35;;
25870;SDS011;13689;48.590;7.752;2024-01-27T04:04:31;10.20;;;2.50;;
25870;SDS011;13689;48.590;7.752;2024-01-27T04:06:57;8.32;;;2.58;;
25870;SDS011;13689;48.590;7.752;2024-01-27T04:09:23;11.35;;;2.97;;
25870;SDS011;13689;48.590;7.752;2024-01-27T04:11:49;11.07;;;2.53;;
25870;SDS011;13689;48.590;7.752;2024-01-27T04:14:14;10.52;;;2.83;;
25870;SDS011;13689;48.590;7.752;2024-01-27T04:16:40;9.77;;;2.30;;
25870;SDS011;13689;48.590;7.752;2024-01-27T04:19:07;11.88;;;3.22;;
25870;SDS011;13689;48.590;7.752;2024-01-27T04:21:33;8.88;;;2.50;;
25870;SDS011;13689;48.590;7.752;2024-01-27T04:23:58;9.35;;;2.78;;
25870;SDS011;13689;48.590;7.752;2024-01-27T04:26:24;13.55;;;5.20;;
25870;SDS011;13689;48.590;7.752;2024-01-27T04:28:49;10.38;;;4.05;;
25870;SDS011;13689;48.590;7.752;2024-01-27T04:31:15;10.18;;;3.10;;
25870;SDS011;13689;48.590;7.752;2024-01-27T04:33:40;7.55;;;2.75;;
25870;SDS011;13689;48.590;7.752;2024-01-27T04:36:06;11.35;;;2.60;;
25870;SDS011;13689;48.590;7.752;2024-01-27T04:38:33;9.03;;;2.10;;
25870;SDS011;13689;48.590;7.752;2024-01-27T04:40:59;5.30;;;2.50;;
25870;SDS011;13689;48.590;7.752;2024-01-27T04:43:24;8.90;;;2.60;;
25870;SDS011;13689;48.590;7.752;2024-01-27T04:45:50;13.27;;;3.00;;
25870;SDS011;13689;48.590;7.752;2024-01-27T04:48:15;14.75;;;3.05;;
25870;SDS011;13689;48.590;7.752;2024-01-27T04:50:41;14.75;;;3.38;;
25870;SDS011;13689;48.590;7.752;2024-01-27T04:53:07;14.82;;;3.28;;
25870;SDS011;13689;48.590;7.752;2024-01-27T04:55:32;11.02;;;2.63;;
25870;SDS011;13689;48.590;7.752;2024-01-27T04:57:58;6.57;;;2.10;;
25870;SDS011;13689;48.590;7.752;2024-01-27T05:00:24;6.30;;;2.90;;
25870;SDS011;13689;48.590;7.752;2024-01-27T05:02:52;7.50;;;2.70;;
25870;SDS011;13689;48.590;7.752;2024-01-27T05:05:17;9.77;;;3.13;;
25870;SDS011;13689;48.590;7.752;2024-01-27T05:07:43;8.73;;;2.78;;
25870;SDS011;13689;48.590;7.752;2024-01-27T05:10:12;7.82;;;3.40;;
25870;SDS011;13689;48.590;7.752;2024-01-27T05:12:39;7.78;;;2.50;;
25870;SDS011;13689;48.590;7.752;2024-01-27T05:15:05;4.55;;;2.55;;
25870;SDS011;13689;48.590;7.752;2024-01-27T05:17:31;10.05;;;2.92;;
25870;SDS011;13689;48.590;7.752;2024-01-27T05:19:57;7.05;;;2.78;;
25870;SDS011;13689;48.590;7.752;2024-01-27T05:22:23;9.70;;;2.80;;
25870;SDS011;13689;48.590;7.752;2024-01-27T05:24:48;15.25;;;2.80;;
25870;SDS011;13689;48.590;7.752;2024-01-27T05:27:14;11.90;;;3.17;;
25870;SDS011;13689;48.590;7.752;2024-01-27T05:29:40;9.95;;;4.10;;
25870;SDS011;13689;48.590;7.752;2024-01-27T05:32:06;9.23;;;3.03;;
25870;SDS011;13689;48.590;7.752;2024-01-27T05:34:31;15.48;;;3.33;;
25870;SDS011;13689;48.590;7.752;2024-01-27T05:36:57;9.30;;;3.00;;
25870;SDS011;13689;48.590;7.752;2024-01-27T05:39:22;13.73;;;3.15;;
25870;SDS011;13689;48.590;7.752;2024-01-27T05:41:48;10.25;;;3.45;;
25870;SDS011;13689;48.590;7.752;2024-01-27T05:44:14;16.05;;;3.05;;
25870;SDS011;13689;48.590;7.752;2024-01-27T05:46:39;9.75;;;3.63;;
25870;SDS011;13689;48.590;7.752;2024-01-27T05:49:05;7.47;;;2.95;;
25870;SDS011;13689;48.590;7.752;2024-01-27T05:51:30;8.93;;;3.40;;
25870;SDS011;13689;48.590;7.752;2024-01-27T05:53:56;10.25;;;3.30;;
25870;SDS011;13689;48.590;7.752;2024-01-27T05:56:22;12.25;;;3.25;;
25870;SDS011;13689;48.590;7.752;2024-01-27T05:58:47;10.98;;;3.40;;
25870;SDS011;13689;48.590;7.752;2024-01-27T06:01:13;7.13;;;3.40;;
25870;SDS011;13689;48.590;7.752;2024-01-27T06:03:42;6.28;;;3.45;;
25870;SDS011;13689;48.590;7.752;2024-01-27T06:06:08;10.27;;;3.58;;
25870;SDS011;13689;48.590;7.752;2024-01-27T06:08:34;11.40;;;3.90;;
25870;SDS011;13689;48.590;7.752;2024-01-27T06:11:00;13.05;;;3.17;;
25870;SDS011;13689;48.590;7.752;2024-01-27T06:13:26;12.02;;;3.20;;
25870;SDS011;13689;48.590;7.752;2024-01-27T06:15:51;14.55;;;3.90;;
25870;SDS011;13689;48.590;7.752;2024-01-27T06:18:17;12.38;;;4.38;;
25870;SDS011;13689;48.590;7.752;2024-01-27T06:20:43;15.38;;;4.20;;
25870;SDS011;13689;48.590;7.752;2024-01-27T06:23:09;11.60;;;4.03;;
25870;SDS011;13689;48.590;7.752;2024-01-27T06:25:34;10.90;;;4.10;;
25870;SDS011;13689;48.590;7.752;2024-01-27T06:28:00;12.65;;;3.42;;
25870;SDS011;13689;48.590;7.752;2024-01-27T06:30:25;12.23;;;3.97;;
25870;SDS011;13689;48.590;7.752;2024-01-27T06:32:51;10.88;;;3.97;;
25870;SDS011;13689;48.590;7.752;2024-01-27T06:35:17;11.23;;;4.30;;
25870;SDS011;13689;48.590;7.752;2024-01-27T06:37:42;12.40;;;4.32;;
25870;SDS011;13689;48.590;7.752;2024-01-27T06:40:08;15.77;;;4.00;;
25870;SDS011;13689;48.590;7.752;2024-01-27T06:42:34;13.60;;;4.57;;
25870;SDS011;13689;48.590;7.752;2024-01-27T06:45:00;11.93;;;4.32;;
25870;SDS011;13689;48.590;7.752;2024-01-27T06:47:26;16.02;;;4.65;;
25870;SDS011;13689;48.590;7.752;2024-01-27T06:49:52;16.10;;;4.25;;
25870;SDS011;13689;48.590;7.752;2024-01-27T06:52:18;17.45;;;5.07;;
25870;SDS011;13689;48.590;7.752;2024-01-27T06:54:43;10.23;;;4.57;;
25870;SDS011;13689;48.590;7.752;2024-01-27T06:57:22;19.52;;;5.85;;
25870;SDS011;13689;48.590;7.752;2024-01-27T06:59:49;18.60;;;4.63;;
25870;SDS011;13689;48.590;7.752;2024-01-27T07:02:26;13.38;;;4.22;;
25870;SDS011;13689;48.590;7.752;2024-01-27T07:04:52;13.48;;;4.32;;
25870;SDS011;13689;48.590;7.752;2024-01-27T07:07:27;12.85;;;4.70;;
25870;SDS011;13689;48.590;7.752;2024-01-27T07:09:57;13.52;;;4.07;;
25870;SDS011;13689;48.590;7.752;2024-01-27T07:12:23;11.45;;;3.85;;
25870;SDS011;13689;48.590;7.752;2024-01-27T07:14:49;15.30;;;4.72;;
25870;SDS011;13689;48.590;7.752;2024-01-27T07:17:16;14.98;;;4.80;;
25870;SDS011;13689;48.590;7.752;2024-01-27T07:19:41;15.13;;;4.80;;
25870;SDS011;13689;48.590;7.752;2024-01-27T07:22:07;21.83;;;5.45;;
25870;SDS011;13689;48.590;7.752;2024-01-27T07:24:33;16.80;;;5.93;;
25870;SDS011;13689;48.590;7.752;2024-01-27T07:27:01;16.80;;;5.38;;
25870;SDS011;13689;48.590;7.752;2024-01-27T07:29:28;10.82;;;4.75;;
25870;SDS011;13689;48.590;7.752;2024-01-27T07:31:54;17.13;;;5.70;;
25870;SDS011;13689;48.590;7.752;2024-01-27T07:34:20;13.82;;;5.03;;
25870;SDS011;13689;48.590;7.752;2024-01-27T07:36:46;15.25;;;6.97;;
25870;SDS011;13689;48.590;7.752;2024-01-27T07:41:39;25.33;;;10.32;;
25870;SDS011;13689;48.590;7.752;2024-01-27T07:44:12;22.83;;;9.23;;
25870;SDS011;13689;48.590;7.752;2024-01-27T07:46:39;33.30;;;10.98;;
25870;SDS011;13689;48.590;7.752;2024-01-27T07:49:06;23.65;;;8.32;;
25870;SDS011;13689;48.590;7.752;2024-01-27T07:51:32;22.55;;;8.32;;
25870;SDS011;13689;48.590;7.752;2024-01-27T07:53:59;17.52;;;7.20;;
25870;SDS011;13689;48.590;7.752;2024-01-27T07:56:25;19.48;;;7.38;;
25870;SDS011;13689;48.590;7.752;2024-01-27T07:58:51;22.23;;;8.00;;
25870;SDS011;13689;48.590;7.752;2024-01-27T08:01:17;16.63;;;7.13;;
25870;SDS011;13689;48.590;7.752;2024-01-27T08:03:43;15.25;;;7.25;;
25870;SDS011;13689;48.590;7.752;2024-01-27T08:06:20;19.65;;;6.95;;
25870;SDS011;13689;48.590;7.752;2024-01-27T08:08:52;23.25;;;6.45;;
25870;SDS011;13689;48.590;7.752;2024-01-27T08:11:17;18.80;;;5.22;;
25870;SDS011;13689;48.590;7.752;2024-01-27T08:13:43;23.30;;;6.47;;
25870;SDS011;13689;48.590;7.752;2024-01-27T08:16:09;14.85;;;6.32;;
25870;SDS011;13689;48.590;7.752;2024-01-27T08:21:09;18.00;;;6.88;;
25870;SDS011;13689;48.590;7.752;2024-01-27T08:23:35;24.33;;;8.68;;
25870;SDS011;13689;48.590;7.752;2024-01-27T08:26:01;23.25;;;8.18;;
25870;SDS011;13689;48.590;7.752;2024-01-27T08:28:26;22.23;;;8.23;;
25870;SDS011;13689;48.590;7.752;2024-01-27T08:30:52;29.15;;;8.55;;
25870;SDS011;13689;48.590;7.752;2024-01-27T08:33:18;19.23;;;8.27;;
25870;SDS011;13689;48.590;7.752;2024-01-27T08:35:45;20.83;;;8.45;;
25870;SDS011;13689;48.590;7.752;2024-01-27T08:38:13;16.35;;;8.30;;
25870;SDS011;13689;48.590;7.752;2024-01-27T08:40:38;22.10;;;9.23;;
25870;SDS011;13689;48.590;7.752;2024-01-27T08:43:04;20.58;;;8.38;;
25870;SDS011;13689;48.590;7.752;2024-01-27T08:45:30;19.95;;;8.90;;
25870;SDS011;13689;48.590;7.752;2024-01-27T08:47:57;15.80;;;8.68;;
25870;SDS011;13689;48.590;7.752;2024-01-27T08:50:22;23.30;;;9.35;;
25870;SDS011;13689;48.590;7.752;2024-01-27T08:52:48;18.98;;;7.97;;
25870;SDS011;13689;48.590;7.752;2024-01-27T08:55:13;22.67;;;8.05;;
25870;SDS011;13689;48.590;7.752;2024-01-27T08:57:39;19.20;;;8.07;;
25870;SDS011;13689;48.590;7.752;2024-01-27T09:00:05;23.35;;;8.57;;
25870;SDS011;13689;48.590;7.752;2024-01-27T09:02:31;17.15;;;7.97;;
25870;SDS011;13689;48.590;7.752;2024-01-27T09:04:57;17.77;;;8.35;;
25870;SDS011;13689;48.590;7.752;2024-01-27T09:07:23;23.58;;;8.80;;
25870;SDS011;13689;48.590;7.752;2024-01-27T09:09:49;26.65;;;9.55;;
25870;SDS011;13689;48.590;7.752;2024-01-27T09:12:14;21.10;;;9.68;;
25870;SDS011;13689;48.590;7.752;2024-01-27T09:14:40;23.75;;;8.07;;
25870;SDS011;13689;48.590;7.752;2024-01-27T09:17:06;16.75;;;6.88;;
25870;SDS011;13689;48.590;7.752;2024-01-27T09:19:31;18.17;;;7.97;;
25870;SDS011;13689;48.590;7.752;2024-01-27T09:21:57;16.55;;;6.65;;
25870;SDS011;13689;48.590;7.752;2024-01-27T09:24:23;18.80;;;6.68;;
25870;SDS011;13689;48.590;7.752;2024-01-27T09:26:48;19.63;;;7.95;;
25870;SDS011;13689;48.590;7.752;2024-01-27T09:29:14;13.82;;;7.55;;
25870;SDS011;13689;48.590;7.752;2024-01-27T09:31:39;14.55;;;6.95;;
25870;SDS011;13689;48.590;7.752;2024-01-27T09:34:05;18.05;;;6.85;;
25870;SDS011;13689;48.590;7.752;2024-01-27T09:36:31;14.32;;;6.82;;
25870;SDS011;13689;48.590;7.752;2024-01-27T09:38:56;9.43;;;5.72;;
25870;SDS011;13689;48.590;7.752;2024-01-27T09:41:24;11.48;;;5.78;;
25870;SDS011;13689;48.590;7.752;2024-01-27T09:43:56;10.70;;;5.95;;
25870;SDS011;13689;48.590;7.752;2024-01-27T09:46:28;8.90;;;5.35;;
25870;SDS011;13689;48.590;7.752;2024-01-27T09:48:55;12.02;;;4.82;;
25870;SDS011;13689;48.590;7.752;2024-01-27T09:51:21;11.77;;;4.88;;
25870;SDS011;13689;48.590;7.752;2024-01-27T09:53:48;13.63;;;4.85;;
25870;SDS011;13689;48.590;7.752;2024-01-27T09:56:16;27.83;;;7.50;;
25870;SDS011;13689;48.590;7.752;2024-01-27T09:58:46;7.30;;;4.22;;
25870;SDS011;13689;48.590;7.752;2024-01-27T10:01:15;10.60;;;4.28;;
25870;SDS011;13689;48.590;7.752;2024-01-27T10:03:42;7.88;;;4.45;;
25870;SDS011;13689;48.590;7.752;2024-01-27T10:06:09;9.80;;;4.32;;
25870;SDS011;13689;48.590;7.752;2024-01-27T10:08:35;11.98;;;4.18;;
25870;SDS011;13689;48.590;7.752;2024-01-27T10:11:05;11.98;;;4.35;;
25870;SDS011;13689;48.590;7.752;2024-01-27T10:13:32;10.85;;;4.80;;
25870;SDS011;13689;48.590;7.752;2024-01-27T10:16:01;13.25;;;4.25;;
25870;SDS011;13689;48.590;7.752;2024-01-27T10:18:28;13.57;;;4.22;;
25870;SDS011;13689;48.590;7.752;2024-01-27T10:20:54;9.80;;;4.45;;
25870;SDS011;13689;48.590;7.752;2024-01-27T10:23:20;9.98;;;4.13;;
25870;SDS011;13689;48.590;7.752;2024-01-27T10:25:45;8.07;;;5.10;;
25870;SDS011;13689;48.590;7.752;2024-01-27T10:28:11;7.13;;;3.83;;
25870;SDS011;13689;48.590;7.752;2024-01-27T10:30:37;10.55;;;4.88;;
25870;SDS011;13689;48.590;7.752;2024-01-27T10:33:03;14.73;;;4.80;;
25870;SDS011;13689;48.590;7.752;2024-01-27T10:35:29;15.02;;;4.70;;
25870;SDS011;13689;48.590;7.752;2024-01-27T10:37:55;10.13;;;4.60;;
25870;SDS011;13689;48.590;7.752;2024-01-27T10:40:22;10.48;;;4.80;;
25870;SDS011;13689;48.590;7.752;2024-01-27T10:43:02;10.90;;;4.65;;
25870;SDS011;13689;48.590;7.752;2024-01-27T10:45:39;10.88;;;4.22;;
25870;SDS011;13689;48.590;7.752;2024-01-27T10:48:06;12.45;;;5.68;;
25870;SDS011;13689;48.590;7.752;2024-01-27T10:50:35;11.38;;;4.45;;
25870;SDS011;13689;48.590;7.752;2024-01-27T10:53:03;8.25;;;4.40;;
25870;SDS011;13689;48.590;7.752;2024-01-27T10:55:31;17.70;;;5.28;;
25870;SDS011;13689;48.590;7.752;2024-01-27T10:58:00;12.15;;;5.30;;
25870;SDS011;13689;48.590;7.752;2024-01-27T11:00:27;11.77;;;5.13;;
25870;SDS011;13689;48.590;7.752;2024-01-27T11:05:23;15.35;;;4.97;;
25870;SDS011;13689;48.590;7.752;2024-01-27T11:07:49;11.77;;;5.57;;
25870;SDS011;13689;48.590;7.752;2024-01-27T11:10:17;12.43;;;5.88;;
25870;SDS011;13689;48.590;7.752;2024-01-27T11:12:43;17.70;;;5.82;;
25870;SDS011;13689;48.590;7.752;2024-01-27T11:15:09;17.40;;;5.57;;
25870;SDS011;13689;48.590;7.752;2024-01-27T11:17:39;16.95;;;6.80;;
25870;SDS011;13689;48.590;7.752;2024-01-27T11:20:07;19.08;;;6.75;;
25870;SDS011;13689;48.590;7.752;2024-01-27T11:22:34;20.65;;;7.93;;
25870;SDS011;13689;48.590;7.752;2024-01-27T11:27:33;19.27;;;7.93;;
25870;SDS011;13689;48.590;7.752;2024-01-27T11:30:00;17.85;;;7.22;;
25870;SDS011;13689;48.590;7.752;2024-01-27T11:32:26;20.45;;;7.72;;
25870;SDS011;13689;48.590;7.752;2024-01-27T11:34:51;17.83;;;8.65;;
25870;SDS011;13689;48.590;7.752;2024-01-27T11:37:17;11.40;;;6.38;;
25870;SDS011;13689;48.590;7.752;2024-01-27T11:39:49;22.92;;;8.27;;
25870;SDS011;13689;48.590;7.752;2024-01-27T11:42:16;16.92;;;6.82;;
25870;SDS011;13689;48.590;7.752;2024-01-27T11:44:45;21.10;;;6.90;;
25870;SDS011;13689;48.590;7.752;2024-01-27T11:47:17;14.82;;;6.15;;
25870;SDS011;13689;48.590;7.752;2024-01-27T11:49:53;15.73;;;6.72;;
25870;SDS011;13689;48.590;7.752;2024-01-27T11:52:20;14.70;;;6.25;;
25870;SDS011;13689;48.590;7.752;2024-01-27T11:54:53;25.08;;;6.47;;
25870;SDS011;13689;48.590;7.752;2024-01-27T11:57:25;13.05;;;6.25;;
25870;SDS011;13689;48.590;7.752;2024-01-27T11:59:51;12.50;;;5.78;;
25870;SDS011;13689;48.590;7.752;2024-01-27T12:02:17;11.02;;;5.85;;
25870;SDS011;13689;48.590;7.752;2024-01-27T12:04:43;11.85;;;4.53;;
25870;SDS011;13689;48.590;7.752;2024-01-27T12:07:09;15.80;;;5.15;;
25870;SDS011;13689;48.590;7.752;2024-01-27T12:09:35;16.80;;;4.80;;
25870;SDS011;13689;48.590;7.752;2024-01-27T12:12:01;14.25;;;4.78;;
25870;SDS011;13689;48.590;7.752;2024-01-27T12:14:38;9.93;;;3.60;;
25870;SDS011;13689;48.590;7.752;2024-01-27T12:17:05;10.85;;;3.75;;
25870;SDS011;13689;48.590;7.752;2024-01-27T12:19:32;8.43;;;3.75;;
25870;SDS011;13689;48.590;7.752;2024-01-27T12:21:58;10.15;;;3.35;;
25870;SDS011;13689;48.590;7.752;2024-01-27T12:24:24;10.32;;;3.55;;
25870;SDS011;13689;48.590;7.752;2024-01-27T12:26:49;11.75;;;3.60;;
25870;SDS011;13689;48.590;7.752;2024-01-27T12:29:15;16.98;;;3.88;;
25870;SDS011;13689;48.590;7.752;2024-01-27T12:31:40;12.85;;;4.53;;
25870;SDS011;13689;48.590;7.752;2024-01-27T12:34:06;11.30;;;3.92;;
25870;SDS011;13689;48.590;7.752;2024-01-27T12:36:32;10.57;;;4.07;;
25870;SDS011;13689;48.590;7.752;2024-01-27T12:38:59;11.52;;;4.25;;
25870;SDS011;13689;48.590;7.752;2024-01-27T12:41:26;11.70;;;3.75;;
25870;SDS011;13689;48.590;7.752;2024-01-27T12:43:53;8.73;;;3.03;;
25870;SDS011;13689;48.590;7.752;2024-01-27T12:46:19;10.52;;;4.03;;
25870;SDS011;13689;48.590;7.752;2024-01-27T12:48:45;9.88;;;3.70;;
25870;SDS011;13689;48.590;7.752;2024-01-27T12:51:11;22.70;;;6.07;;
25870;SDS011;13689;48.590;7.752;2024-01-27T12:53:40;15.80;;;5.43;;
25870;SDS011;13689;48.590;7.752;2024-01-27T12:56:09;14.18;;;5.93;;
25870;SDS011;13689;48.590;7.752;2024-01-27T12:58:35;9.52;;;3.72;;
25870;SDS011;13689;48.590;7.752;2024-01-27T13:01:01;10.18;;;4.93;;
25870;SDS011;13689;48.590;7.752;2024-01-27T13:03:26;12.85;;;3.80;;
25870;SDS011;13689;48.590;7.752;2024-01-27T13:05:53;15.00;;;3.90;;
25870;SDS011;13689;48.590;7.752;2024-01-27T13:08:19;13.93;;;4.88;;
25870;SDS011;13689;48.590;7.752;2024-01-27T13:10:45;18.67;;;5.93;;
25870;SDS011;13689;48.590;7.752;2024-01-27T13:13:12;16.13;;;6.20;;
25870;SDS011;13689;48.590;7.752;2024-01-27T13:15:37;20.02;;;4.90;;
25870;SDS011;13689;48.590;7.752;2024-01-27T13:18:03;18.10;;;3.00;;
25870;SDS011;13689;48.590;7.752;2024-01-27T13:20:29;7.60;;;2.58;;
25870;SDS011;13689;48.590;7.752;2024-01-27T13:22:55;6.57;;;2.30;;
25870;SDS011;13689;48.590;7.752;2024-01-27T13:25:20;9.45;;;2.65;;
25870;SDS011;13689;48.590;7.752;2024-01-27T13:27:46;9.65;;;2.63;;
25870;SDS011;13689;48.590;7.752;2024-01-27T13:30:12;7.40;;;2.88;;
25870;SDS011;13689;48.590;7.752;2024-01-27T13:32:38;11.05;;;5.53;;
25870;SDS011;13689;48.590;7.752;2024-01-27T13:35:04;7.78;;;3.20;;
25870;SDS011;13689;48.590;7.752;2024-01-27T13:37:30;7.38;;;2.25;;
25870;SDS011;13689;48.590;7.752;2024-01-27T13:39:59;16.02;;;3.88;;
25870;SDS011;13689;48.590;7.752;2024-01-27T13:42:25;11.98;;;2.85;;
25870;SDS011;13689;48.590;7.752;2024-01-27T13:44:50;10.52;;;2.78;;
25870;SDS011;13689;48.590;7.752;2024-01-27T13:47:16;9.05;;;3.75;;
25870;SDS011;13689;48.590;7.752;2024-01-27T13:49:42;11.85;;;3.83;;
25870;SDS011;13689;48.590;7.752;2024-01-27T13:52:08;9.43;;;3.20;;
25870;SDS011;13689;48.590;7.752;2024-01-27T13:54:34;18.02;;;4.25;;
25870;SDS011;13689;48.590;7.752;2024-01-27T13:57:00;14.55;;;3.30;;
25870;SDS011;13689;48.590;7.752;2024-01-27T13:59:26;9.23;;;3.15;;
25870;SDS011;13689;48.590;7.752;2024-01-27T14:01:53;26.33;;;10.13;;
25870;SDS011;13689;48.590;7.752;2024-01-27T14:04:18;13.00;;;4.90;;
25870;SDS011;13689;48.590;7.752;2024-01-27T14:06:45;11.98;;;4.95;;
25870;SDS011;13689;48.590;7.752;2024-01-27T14:09:12;18.65;;;3.75;;
25870;SDS011;13689;48.590;7.752;2024-01-27T14:11:40;9.30;;;2.83;;
25870;SDS011;13689;48.590;7.752;2024-01-27T14:14:06;9.98;;;3.35;;
25870;SDS011;13689;48.590;7.752;2024-01-27T14:16:31;9.70;;;3.30;;
25870;SDS011;13689;48.590;7.752;2024-01-27T14:18:58;11.35;;;4.35;;
25870;SDS011;13689;48.590;7.752;2024-01-27T14:21:24;12.80;;;3.92;;
25870;SDS011;13689;48.590;7.752;2024-01-27T14:23:49;11.88;;;3.22;;
25870;SDS011;13689;48.590;7.752;2024-01-27T14:26:15;11.90;;;3.58;;
25870;SDS011;13689;48.590;7.752;2024-01-27T14:28:41;7.47;;;2.50;;
25870;SDS011;13689;48.590;7.752;2024-01-27T14:31:07;10.77;;;2.65;;
25870;SDS011;13689;48.590;7.752;2024-01-27T14:33:33;13.75;;;2.70;;
25870;SDS011;13689;48.590;7.752;2024-01-27T14:35:58;11.18;;;3.28;;
25870;SDS011;13689;48.590;7.752;2024-01-27T14:38:24;4.80;;;1.80;;
25870;SDS011;13689;48.590;7.752;2024-01-27T14:40:49;4.53;;;1.90;;
25870;SDS011;13689;48.590;7.752;2024-01-27T14:43:15;1.08;;;0.88;;